sensor_id;sensor_type;location;lat;lon;timestamp;P1;durP1;ratioP1;P2;durP2;ratioP2
76765;SDS011;65707;52.362;6.588;2023-07-29T00:01:08;25.75;;;11.00;;
76765;SDS011;65707;52.362;6.588;2023-07-29T00:03:35;20.80;;;10.30;;
76765;SDS011;65707;52.362;6.588;2023-07-29T00:06:01;22.05;;;11.30;;
76765;SDS011;65707;52.362;6.588;2023-07-29T00:08:30;23.55;;;10.15;;
76765;SDS011;65707;52.362;6.588;2023-07-29T00:10:57;23.92;;;10.35;;
76765;SDS011;65707;52.362;6.588;2023-07-29T00:13:23;25.40;;;10.93;;
76765;SDS011;65707;52.362;6.588;2023-07-29T00:15:53;20.70;;;10.40;;
76765;SDS011;65707;52.362;6.588;2023-07-29T00:18:20;22.05;;;9.80;;
76765;SDS011;65707;52.362;6.588;2023-07-29T00:20:48;21.33;;;10.57;;
76765;SDS011;65707;52.362;6.588;2023-07-29T00:23:16;26.33;;;11.02;;
76765;SDS011;65707;52.362;6.588;2023-07-29T00:25:46;23.63;;;10.45;;
76765;SDS011;65707;52.362;6.588;2023-07-29T00:28:13;23.30;;;10.93;;
76765;SDS011;65707;52.362;6.588;2023-07-29T00:30:39;25.42;;;11.38;;
76765;SDS011;65707;52.362;6.588;2023-07-29T00:33:06;27.20;;;11.20;;
76765;SDS011;65707;52.362;6.588;2023-07-29T00:35:34;26.15;;;11.73;;
76765;SDS011;65707;52.362;6.588;2023-07-29T00:38:01;22.75;;;10.70;;
76765;SDS011;65707;52.362;6.588;2023-07-29T00:40:28;22.20;;;10.57;;
76765;SDS011;65707;52.362;6.588;2023-07-29T00:42:57;19.70;;;10.38;;
76765;SDS011;65707;52.362;6.588;2023-07-29T00:45:24;21.33;;;10.25;;
76765;SDS011;65707;52.362;6.588;2023-07-29T00:47:54;19.98;;;10.00;;
76765;SDS011;65707;52.362;6.588;2023-07-29T00:50:22;20.77;;;10.55;;
76765;SDS011;65707;52.362;6.588;2023-07-29T00:52:49;20.83;;;10.43;;
76765;SDS011;65707;52.362;6.588;2023-07-29T00:55:16;20.95;;;10.45;;
76765;SDS011;65707;52.362;6.588;2023-07-29T00:57:44;18.45;;;9.50;;
76765;SDS011;65707;52.362;6.588;2023-07-29T01:00:14;23.05;;;10.27;;
76765;SDS011;65707;52.362;6.588;2023-07-29T01:02:42;22.00;;;10.82;;
76765;SDS011;65707;52.362;6.588;2023-07-29T01:05:10;24.15;;;9.88;;
76765;SDS011;65707;52.362;6.588;2023-07-29T01:07:40;20.10;;;10.65;;
76765;SDS011;65707;52.362;6.588;2023-07-29T01:10:19;20.13;;;9.48;;
76765;SDS011;65707;52.362;6.588;2023-07-29T01:12:59;21.17;;;9.68;;
76765;SDS011;65707;52.362;6.588;2023-07-29T01:15:36;23.65;;;10.30;;
76765;SDS011;65707;52.362;6.588;2023-07-29T01:18:14;20.27;;;9.57;;
76765;SDS011;65707;52.362;6.588;2023-07-29T01:20:47;19.98;;;9.93;;
76765;SDS011;65707;52.362;6.588;2023-07-29T01:23:15;20.90;;;9.55;;
76765;SDS011;65707;52.362;6.588;2023-07-29T01:25:44;20.05;;;9.38;;
76765;SDS011;65707;52.362;6.588;2023-07-29T01:28:10;20.35;;;9.57;;
76765;SDS011;65707;52.362;6.588;2023-07-29T01:30:38;20.33;;;9.68;;
76765;SDS011;65707;52.362;6.588;2023-07-29T01:33:09;22.95;;;10.15;;
76765;SDS011;65707;52.362;6.588;2023-07-29T01:35:42;22.02;;;9.45;;
76765;SDS011;65707;52.362;6.588;2023-07-29T01:38:14;25.42;;;10.57;;
76765;SDS011;65707;52.362;6.588;2023-07-29T01:40:47;22.52;;;10.13;;
76765;SDS011;65707;52.362;6.588;2023-07-29T01:43:16;22.30;;;9.80;;
76765;SDS011;65707;52.362;6.588;2023-07-29T01:45:48;22.42;;;9.57;;
76765;SDS011;65707;52.362;6.588;2023-07-29T01:48:16;22.27;;;9.60;;
76765;SDS011;65707;52.362;6.588;2023-07-29T01:50:42;24.33;;;10.27;;
76765;SDS011;65707;52.362;6.588;2023-07-29T01:53:09;23.83;;;10.05;;
76765;SDS011;65707;52.362;6.588;2023-07-29T01:55:36;20.65;;;9.88;;
76765;SDS011;65707;52.362;6.588;2023-07-29T01:58:04;22.40;;;9.82;;
76765;SDS011;65707;52.362;6.588;2023-07-29T02:00:31;23.13;;;9.93;;
76765;SDS011;65707;52.362;6.588;2023-07-29T02:02:57;22.92;;;9.98;;
76765;SDS011;65707;52.362;6.588;2023-07-29T02:05:24;23.55;;;10.50;;
76765;SDS011;65707;52.362;6.588;2023-07-29T02:07:51;24.13;;;10.38;;
76765;SDS011;65707;52.362;6.588;2023-07-29T02:10:18;23.52;;;10.05;;
76765;SDS011;65707;52.362;6.588;2023-07-29T02:12:44;23.17;;;10.45;;
76765;SDS011;65707;52.362;6.588;2023-07-29T02:15:12;22.63;;;10.27;;
76765;SDS011;65707;52.362;6.588;2023-07-29T02:17:40;23.83;;;10.07;;
76765;SDS011;65707;52.362;6.588;2023-07-29T02:20:08;22.27;;;10.43;;
76765;SDS011;65707;52.362;6.588;2023-07-29T02:22:36;24.20;;;10.43;;
76765;SDS011;65707;52.362;6.588;2023-07-29T02:25:03;24.75;;;10.50;;
76765;SDS011;65707;52.362;6.588;2023-07-29T02:27:31;22.92;;;11.20;;
76765;SDS011;65707;52.362;6.588;2023-07-29T02:29:58;26.77;;;10.75;;
76765;SDS011;65707;52.362;6.588;2023-07-29T02:32:26;22.77;;;10.10;;
76765;SDS011;65707;52.362;6.588;2023-07-29T02:34:53;22.38;;;9.77;;
76765;SDS011;65707;52.362;6.588;2023-07-29T02:37:20;22.88;;;9.68;;
76765;SDS011;65707;52.362;6.588;2023-07-29T02:39:47;21.88;;;9.98;;
76765;SDS011;65707;52.362;6.588;2023-07-29T02:42:14;21.92;;;9.75;;
76765;SDS011;65707;52.362;6.588;2023-07-29T02:44:40;23.92;;;10.98;;
76765;SDS011;65707;52.362;6.588;2023-07-29T02:47:07;23.70;;;10.02;;
76765;SDS011;65707;52.362;6.588;2023-07-29T02:49:35;22.17;;;9.98;;
76765;SDS011;65707;52.362;6.588;2023-07-29T02:52:02;24.20;;;9.85;;
76765;SDS011;65707;52.362;6.588;2023-07-29T02:54:30;23.80;;;10.13;;
76765;SDS011;65707;52.362;6.588;2023-07-29T02:56:56;22.92;;;9.35;;
76765;SDS011;65707;52.362;6.588;2023-07-29T02:59:23;24.65;;;9.75;;
76765;SDS011;65707;52.362;6.588;2023-07-29T03:01:50;23.40;;;10.48;;
76765;SDS011;65707;52.362;6.588;2023-07-29T03:04:17;25.88;;;10.05;;
76765;SDS011;65707;52.362;6.588;2023-07-29T03:06:45;21.58;;;9.30;;
76765;SDS011;65707;52.362;6.588;2023-07-29T03:09:13;23.55;;;10.55;;
76765;SDS011;65707;52.362;6.588;2023-07-29T03:11:40;23.20;;;9.68;;
76765;SDS011;65707;52.362;6.588;2023-07-29T03:14:07;21.33;;;9.23;;
76765;SDS011;65707;52.362;6.588;2023-07-29T03:16:33;19.55;;;9.88;;
76765;SDS011;65707;52.362;6.588;2023-07-29T03:19:00;20.35;;;9.23;;
76765;SDS011;65707;52.362;6.588;2023-07-29T03:21:27;19.77;;;9.63;;
76765;SDS011;65707;52.362;6.588;2023-07-29T03:23:55;22.77;;;9.57;;
76765;SDS011;65707;52.362;6.588;2023-07-29T03:26:22;18.60;;;8.73;;
76765;SDS011;65707;52.362;6.588;2023-07-29T03:28:49;21.67;;;9.45;;
76765;SDS011;65707;52.362;6.588;2023-07-29T03:31:16;20.85;;;9.35;;
76765;SDS011;65707;52.362;6.588;2023-07-29T03:33:42;21.00;;;9.20;;
76765;SDS011;65707;52.362;6.588;2023-07-29T03:36:09;20.40;;;9.75;;
76765;SDS011;65707;52.362;6.588;2023-07-29T03:38:36;20.40;;;9.07;;
76765;SDS011;65707;52.362;6.588;2023-07-29T03:41:06;18.48;;;8.65;;
76765;SDS011;65707;52.362;6.588;2023-07-29T03:43:33;19.77;;;8.48;;
76765;SDS011;65707;52.362;6.588;2023-07-29T03:46:00;20.05;;;8.35;;
76765;SDS011;65707;52.362;6.588;2023-07-29T03:48:27;18.70;;;8.52;;
76765;SDS011;65707;52.362;6.588;2023-07-29T03:50:54;17.67;;;8.50;;
76765;SDS011;65707;52.362;6.588;2023-07-29T03:53:21;17.90;;;8.48;;
76765;SDS011;65707;52.362;6.588;2023-07-29T03:55:47;20.85;;;9.05;;
76765;SDS011;65707;52.362;6.588;2023-07-29T03:58:16;22.13;;;8.10;;
76765;SDS011;65707;52.362;6.588;2023-07-29T04:00:43;20.00;;;8.52;;
76765;SDS011;65707;52.362;6.588;2023-07-29T04:03:10;16.35;;;7.75;;
76765;SDS011;65707;52.362;6.588;2023-07-29T04:05:37;16.75;;;8.10;;
76765;SDS011;65707;52.362;6.588;2023-07-29T04:08:04;19.55;;;8.85;;
76765;SDS011;65707;52.362;6.588;2023-07-29T04:10:30;18.65;;;8.20;;
76765;SDS011;65707;52.362;6.588;2023-07-29T04:12:57;17.58;;;8.07;;
76765;SDS011;65707;52.362;6.588;2023-07-29T04:15:25;19.52;;;8.15;;
76765;SDS011;65707;52.362;6.588;2023-07-29T04:17:52;20.25;;;8.40;;
76765;SDS011;65707;52.362;6.588;2023-07-29T04:20:19;16.83;;;8.68;;
76765;SDS011;65707;52.362;6.588;2023-07-29T04:22:46;16.90;;;7.82;;
76765;SDS011;65707;52.362;6.588;2023-07-29T04:25:12;15.68;;;7.80;;
76765;SDS011;65707;52.362;6.588;2023-07-29T04:27:39;16.15;;;8.18;;
76765;SDS011;65707;52.362;6.588;2023-07-29T04:30:07;17.75;;;8.07;;
76765;SDS011;65707;52.362;6.588;2023-07-29T04:32:36;15.13;;;7.35;;
76765;SDS011;65707;52.362;6.588;2023-07-29T04:35:03;15.52;;;8.10;;
76765;SDS011;65707;52.362;6.588;2023-07-29T04:37:30;14.88;;;7.97;;
76765;SDS011;65707;52.362;6.588;2023-07-29T04:39:57;14.13;;;7.00;;
76765;SDS011;65707;52.362;6.588;2023-07-29T04:42:24;16.60;;;7.25;;
76765;SDS011;65707;52.362;6.588;2023-07-29T04:44:51;12.70;;;6.72;;
76765;SDS011;65707;52.362;6.588;2023-07-29T04:47:17;14.40;;;6.93;;
76765;SDS011;65707;52.362;6.588;2023-07-29T04:49:45;12.50;;;7.13;;
76765;SDS011;65707;52.362;6.588;2023-07-29T04:52:12;16.23;;;6.95;;
76765;SDS011;65707;52.362;6.588;2023-07-29T04:54:39;17.13;;;7.40;;
76765;SDS011;65707;52.362;6.588;2023-07-29T04:57:07;13.95;;;6.30;;
76765;SDS011;65707;52.362;6.588;2023-07-29T04:59:33;12.57;;;6.22;;
76765;SDS011;65707;52.362;6.588;2023-07-29T05:02:00;11.43;;;5.80;;
76765;SDS011;65707;52.362;6.588;2023-07-29T05:04:27;14.23;;;6.63;;
76765;SDS011;65707;52.362;6.588;2023-07-29T05:06:55;13.70;;;6.30;;
76765;SDS011;65707;52.362;6.588;2023-07-29T05:09:22;14.25;;;5.88;;
76765;SDS011;65707;52.362;6.588;2023-07-29T05:11:48;12.15;;;6.30;;
76765;SDS011;65707;52.362;6.588;2023-07-29T05:14:16;14.98;;;6.57;;
76765;SDS011;65707;52.362;6.588;2023-07-29T05:16:44;12.98;;;6.40;;
76765;SDS011;65707;52.362;6.588;2023-07-29T05:19:11;16.00;;;7.25;;
76765;SDS011;65707;52.362;6.588;2023-07-29T05:21:38;12.13;;;6.13;;
76765;SDS011;65707;52.362;6.588;2023-07-29T05:24:06;16.15;;;6.57;;
76765;SDS011;65707;52.362;6.588;2023-07-29T05:26:33;12.93;;;6.28;;
76765;SDS011;65707;52.362;6.588;2023-07-29T05:29:00;13.50;;;6.57;;
76765;SDS011;65707;52.362;6.588;2023-07-29T05:31:27;13.73;;;6.43;;
76765;SDS011;65707;52.362;6.588;2023-07-29T05:33:53;15.82;;;6.82;;
76765;SDS011;65707;52.362;6.588;2023-07-29T05:36:20;14.40;;;6.45;;
76765;SDS011;65707;52.362;6.588;2023-07-29T05:38:47;14.35;;;6.70;;
76765;SDS011;65707;52.362;6.588;2023-07-29T05:41:15;14.98;;;7.00;;
76765;SDS011;65707;52.362;6.588;2023-07-29T05:43:42;15.52;;;7.00;;
76765;SDS011;65707;52.362;6.588;2023-07-29T05:46:10;14.35;;;6.85;;
76765;SDS011;65707;52.362;6.588;2023-07-29T05:48:37;13.40;;;6.65;;
76765;SDS011;65707;52.362;6.588;2023-07-29T05:51:03;16.35;;;7.40;;
76765;SDS011;65707;52.362;6.588;2023-07-29T05:53:31;14.10;;;6.93;;
76765;SDS011;65707;52.362;6.588;2023-07-29T05:55:58;15.07;;;7.68;;
76765;SDS011;65707;52.362;6.588;2023-07-29T05:58:26;15.15;;;7.85;;
76765;SDS011;65707;52.362;6.588;2023-07-29T06:00:53;12.77;;;6.88;;
76765;SDS011;65707;52.362;6.588;2023-07-29T06:03:19;14.25;;;6.90;;
76765;SDS011;65707;52.362;6.588;2023-07-29T06:05:46;12.93;;;6.50;;
76765;SDS011;65707;52.362;6.588;2023-07-29T06:08:14;11.02;;;6.05;;
76765;SDS011;65707;52.362;6.588;2023-07-29T06:10:41;11.57;;;5.68;;
76765;SDS011;65707;52.362;6.588;2023-07-29T06:13:08;13.25;;;6.68;;
76765;SDS011;65707;52.362;6.588;2023-07-29T06:15:36;11.63;;;5.88;;
76765;SDS011;65707;52.362;6.588;2023-07-29T06:18:03;12.80;;;6.07;;
76765;SDS011;65707;52.362;6.588;2023-07-29T06:20:30;11.48;;;5.72;;
76765;SDS011;65707;52.362;6.588;2023-07-29T06:22:57;11.90;;;5.20;;
76765;SDS011;65707;52.362;6.588;2023-07-29T06:25:23;12.50;;;5.40;;
76765;SDS011;65707;52.362;6.588;2023-07-29T06:27:50;11.10;;;5.15;;
76765;SDS011;65707;52.362;6.588;2023-07-29T06:30:17;10.35;;;4.63;;
76765;SDS011;65707;52.362;6.588;2023-07-29T06:32:45;10.40;;;4.53;;
76765;SDS011;65707;52.362;6.588;2023-07-29T06:35:12;8.20;;;4.20;;
76765;SDS011;65707;52.362;6.588;2023-07-29T06:37:39;8.80;;;3.72;;
76765;SDS011;65707;52.362;6.588;2023-07-29T06:40:06;9.02;;;4.10;;
76765;SDS011;65707;52.362;6.588;2023-07-29T06:42:34;11.02;;;4.63;;
76765;SDS011;65707;52.362;6.588;2023-07-29T06:45:02;8.48;;;3.83;;
76765;SDS011;65707;52.362;6.588;2023-07-29T06:47:30;11.13;;;4.13;;
76765;SDS011;65707;52.362;6.588;2023-07-29T06:49:58;8.82;;;3.90;;
76765;SDS011;65707;52.362;6.588;2023-07-29T06:52:25;9.07;;;3.80;;
76765;SDS011;65707;52.362;6.588;2023-07-29T06:54:52;8.27;;;3.67;;
76765;SDS011;65707;52.362;6.588;2023-07-29T06:57:19;8.35;;;3.78;;
76765;SDS011;65707;52.362;6.588;2023-07-29T06:59:45;10.20;;;3.38;;
76765;SDS011;65707;52.362;6.588;2023-07-29T07:02:12;8.93;;;3.83;;
76765;SDS011;65707;52.362;6.588;2023-07-29T07:04:39;9.55;;;3.35;;
76765;SDS011;65707;52.362;6.588;2023-07-29T07:07:07;10.57;;;3.72;;
76765;SDS011;65707;52.362;6.588;2023-07-29T07:09:34;8.00;;;3.80;;
76765;SDS011;65707;52.362;6.588;2023-07-29T07:12:01;11.50;;;3.58;;
76765;SDS011;65707;52.362;6.588;2023-07-29T07:14:27;7.97;;;3.22;;
76765;SDS011;65707;52.362;6.588;2023-07-29T07:16:54;8.30;;;3.63;;
76765;SDS011;65707;52.362;6.588;2023-07-29T07:19:21;8.23;;;3.67;;
76765;SDS011;65707;52.362;6.588;2023-07-29T07:21:48;11.27;;;3.80;;
76765;SDS011;65707;52.362;6.588;2023-07-29T07:24:16;12.32;;;4.03;;
76765;SDS011;65707;52.362;6.588;2023-07-29T07:26:43;10.27;;;4.30;;
76765;SDS011;65707;52.362;6.588;2023-07-29T07:29:09;9.95;;;4.30;;
76765;SDS011;65707;52.362;6.588;2023-07-29T07:31:36;9.05;;;3.92;;
76765;SDS011;65707;52.362;6.588;2023-07-29T07:34:03;7.75;;;3.85;;
76765;SDS011;65707;52.362;6.588;2023-07-29T07:36:30;9.48;;;3.83;;
76765;SDS011;65707;52.362;6.588;2023-07-29T07:38:56;9.85;;;3.70;;
76765;SDS011;65707;52.362;6.588;2023-07-29T07:41:25;11.65;;;4.10;;
76765;SDS011;65707;52.362;6.588;2023-07-29T07:43:51;10.23;;;3.75;;
76765;SDS011;65707;52.362;6.588;2023-07-29T07:46:18;8.77;;;3.83;;
76765;SDS011;65707;52.362;6.588;2023-07-29T07:48:45;9.45;;;3.45;;
76765;SDS011;65707;52.362;6.588;2023-07-29T07:51:12;10.13;;;3.85;;
76765;SDS011;65707;52.362;6.588;2023-07-29T07:53:39;11.05;;;3.63;;
76765;SDS011;65707;52.362;6.588;2023-07-29T07:56:07;10.85;;;3.47;;
76765;SDS011;65707;52.362;6.588;2023-07-29T07:58:35;8.50;;;3.50;;
76765;SDS011;65707;52.362;6.588;2023-07-29T08:01:02;7.38;;;3.47;;
76765;SDS011;65707;52.362;6.588;2023-07-29T08:03:29;7.32;;;3.30;;
76765;SDS011;65707;52.362;6.588;2023-07-29T08:05:56;7.80;;;3.50;;
76765;SDS011;65707;52.362;6.588;2023-07-29T08:08:24;8.95;;;3.30;;
76765;SDS011;65707;52.362;6.588;2023-07-29T08:10:52;7.60;;;3.33;;
76765;SDS011;65707;52.362;6.588;2023-07-29T08:13:19;8.15;;;3.20;;
76765;SDS011;65707;52.362;6.588;2023-07-29T08:15:48;7.95;;;3.10;;
76765;SDS011;65707;52.362;6.588;2023-07-29T08:18:16;7.70;;;3.08;;
76765;SDS011;65707;52.362;6.588;2023-07-29T08:20:51;8.05;;;3.20;;
76765;SDS011;65707;52.362;6.588;2023-07-29T08:23:19;7.38;;;3.05;;
76765;SDS011;65707;52.362;6.588;2023-07-29T08:25:50;7.70;;;2.97;;
76765;SDS011;65707;52.362;6.588;2023-07-29T08:28:19;8.73;;;2.58;;
76765;SDS011;65707;52.362;6.588;2023-07-29T08:30:47;10.52;;;2.88;;
76765;SDS011;65707;52.362;6.588;2023-07-29T08:33:15;5.90;;;2.30;;
76765;SDS011;65707;52.362;6.588;2023-07-29T08:35:41;7.40;;;1.95;;
76765;SDS011;65707;52.362;6.588;2023-07-29T08:38:08;7.13;;;2.63;;
76765;SDS011;65707;52.362;6.588;2023-07-29T08:40:35;7.28;;;2.40;;
76765;SDS011;65707;52.362;6.588;2023-07-29T08:43:09;6.07;;;2.45;;
76765;SDS011;65707;52.362;6.588;2023-07-29T08:45:38;7.10;;;2.80;;
76765;SDS011;65707;52.362;6.588;2023-07-29T08:48:08;8.00;;;2.47;;
76765;SDS011;65707;52.362;6.588;2023-07-29T08:50:36;6.72;;;2.40;;
76765;SDS011;65707;52.362;6.588;2023-07-29T08:53:04;6.65;;;2.28;;
76765;SDS011;65707;52.362;6.588;2023-07-29T08:55:31;6.28;;;2.25;;
76765;SDS011;65707;52.362;6.588;2023-07-29T08:57:59;6.68;;;2.17;;
76765;SDS011;65707;52.362;6.588;2023-07-29T09:00:27;7.50;;;2.42;;
76765;SDS011;65707;52.362;6.588;2023-07-29T09:02:54;7.43;;;2.60;;
76765;SDS011;65707;52.362;6.588;2023-07-29T09:05:24;6.45;;;2.38;;
76765;SDS011;65707;52.362;6.588;2023-07-29T09:07:51;10.40;;;3.03;;
76765;SDS011;65707;52.362;6.588;2023-07-29T09:10:22;5.25;;;1.90;;
76765;SDS011;65707;52.362;6.588;2023-07-29T09:12:52;4.90;;;1.60;;
76765;SDS011;65707;52.362;6.588;2023-07-29T09:15:26;7.55;;;1.90;;
76765;SDS011;65707;52.362;6.588;2023-07-29T09:17:55;5.00;;;1.63;;
76765;SDS011;65707;52.362;6.588;2023-07-29T09:20:25;7.35;;;2.00;;
76765;SDS011;65707;52.362;6.588;2023-07-29T09:22:53;6.45;;;1.90;;
76765;SDS011;65707;52.362;6.588;2023-07-29T09:25:24;8.35;;;1.83;;
76765;SDS011;65707;52.362;6.588;2023-07-29T09:27:51;6.97;;;1.95;;
76765;SDS011;65707;52.362;6.588;2023-07-29T09:30:18;6.20;;;1.98;;
76765;SDS011;65707;52.362;6.588;2023-07-29T09:32:45;6.03;;;1.92;;
76765;SDS011;65707;52.362;6.588;2023-07-29T09:35:12;6.75;;;2.20;;
76765;SDS011;65707;52.362;6.588;2023-07-29T09:37:41;6.10;;;1.92;;
76765;SDS011;65707;52.362;6.588;2023-07-29T09:40:13;5.10;;;2.00;;
76765;SDS011;65707;52.362;6.588;2023-07-29T09:42:47;6.90;;;2.50;;
76765;SDS011;65707;52.362;6.588;2023-07-29T09:45:19;6.05;;;2.50;;
76765;SDS011;65707;52.362;6.588;2023-07-29T09:47:47;6.47;;;2.58;;
76765;SDS011;65707;52.362;6.588;2023-07-29T09:50:15;5.05;;;2.25;;
76765;SDS011;65707;52.362;6.588;2023-07-29T09:52:44;6.90;;;3.10;;
76765;SDS011;65707;52.362;6.588;2023-07-29T09:55:13;5.90;;;2.70;;
76765;SDS011;65707;52.362;6.588;2023-07-29T09:57:44;7.68;;;3.20;;
76765;SDS011;65707;52.362;6.588;2023-07-29T10:00:12;7.35;;;3.30;;
76765;SDS011;65707;52.362;6.588;2023-07-29T10:02:40;7.20;;;3.22;;
76765;SDS011;65707;52.362;6.588;2023-07-29T10:05:09;6.43;;;3.05;;
76765;SDS011;65707;52.362;6.588;2023-07-29T10:07:37;6.78;;;2.42;;
76765;SDS011;65707;52.362;6.588;2023-07-29T10:12:35;9.48;;;2.80;;
76765;SDS011;65707;52.362;6.588;2023-07-29T10:15:02;5.82;;;1.98;;
76765;SDS011;65707;52.362;6.588;2023-07-29T10:17:33;6.45;;;2.35;;
76765;SDS011;65707;52.362;6.588;2023-07-29T10:20:03;7.00;;;2.70;;
76765;SDS011;65707;52.362;6.588;2023-07-29T10:22:33;6.75;;;2.70;;
76765;SDS011;65707;52.362;6.588;2023-07-29T10:25:03;6.93;;;2.42;;
76765;SDS011;65707;52.362;6.588;2023-07-29T10:27:35;5.47;;;2.30;;
76765;SDS011;65707;52.362;6.588;2023-07-29T10:30:10;6.25;;;2.90;;
76765;SDS011;65707;52.362;6.588;2023-07-29T10:32:38;5.53;;;2.65;;
76765;SDS011;65707;52.362;6.588;2023-07-29T10:35:09;6.40;;;3.20;;
76765;SDS011;65707;52.362;6.588;2023-07-29T10:37:37;6.63;;;3.22;;
76765;SDS011;65707;52.362;6.588;2023-07-29T10:40:08;6.80;;;2.60;;
76765;SDS011;65707;52.362;6.588;2023-07-29T10:42:37;6.28;;;2.70;;
76765;SDS011;65707;52.362;6.588;2023-07-29T10:45:17;7.45;;;2.90;;
76765;SDS011;65707;52.362;6.588;2023-07-29T10:47:45;7.28;;;2.80;;
76765;SDS011;65707;52.362;6.588;2023-07-29T10:50:17;6.85;;;3.25;;
76765;SDS011;65707;52.362;6.588;2023-07-29T10:52:48;7.45;;;2.83;;
76765;SDS011;65707;52.362;6.588;2023-07-29T10:55:26;6.72;;;3.00;;
76765;SDS011;65707;52.362;6.588;2023-07-29T10:58:08;6.15;;;2.83;;
76765;SDS011;65707;52.362;6.588;2023-07-29T11:00:41;6.25;;;2.45;;
76765;SDS011;65707;52.362;6.588;2023-07-29T11:03:08;7.30;;;2.65;;
76765;SDS011;65707;52.362;6.588;2023-07-29T11:05:42;9.70;;;2.97;;
76765;SDS011;65707;52.362;6.588;2023-07-29T11:08:16;7.75;;;3.25;;
76765;SDS011;65707;52.362;6.588;2023-07-29T11:11:05;8.27;;;2.97;;
76765;SDS011;65707;52.362;6.588;2023-07-29T11:13:34;5.97;;;2.47;;
76765;SDS011;65707;52.362;6.588;2023-07-29T11:16:04;6.22;;;2.38;;
76765;SDS011;65707;52.362;6.588;2023-07-29T11:18:32;7.00;;;2.90;;
76765;SDS011;65707;52.362;6.588;2023-07-29T11:21:00;10.23;;;3.72;;
76765;SDS011;65707;52.362;6.588;2023-07-29T11:23:30;7.75;;;2.95;;
76765;SDS011;65707;52.362;6.588;2023-07-29T11:25:59;7.18;;;2.65;;
76765;SDS011;65707;52.362;6.588;2023-07-29T11:28:29;7.00;;;2.80;;
76765;SDS011;65707;52.362;6.588;2023-07-29T11:30:57;6.88;;;2.90;;
76765;SDS011;65707;52.362;6.588;2023-07-29T11:33:24;7.38;;;2.90;;
76765;SDS011;65707;52.362;6.588;2023-07-29T11:35:53;7.32;;;2.90;;
76765;SDS011;65707;52.362;6.588;2023-07-29T11:38:20;9.63;;;3.75;;
76765;SDS011;65707;52.362;6.588;2023-07-29T11:40:55;8.88;;;4.70;;
76765;SDS011;65707;52.362;6.588;2023-07-29T11:43:24;10.95;;;5.40;;
76765;SDS011;65707;52.362;6.588;2023-07-29T11:45:54;8.30;;;4.70;;
76765;SDS011;65707;52.362;6.588;2023-07-29T11:48:27;8.75;;;4.80;;
76765;SDS011;65707;52.362;6.588;2023-07-29T11:50:57;9.18;;;5.00;;
76765;SDS011;65707;52.362;6.588;2023-07-29T11:53:25;9.63;;;4.97;;
76765;SDS011;65707;52.362;6.588;2023-07-29T11:55:55;9.65;;;5.03;;
76765;SDS011;65707;52.362;6.588;2023-07-29T11:58:22;8.77;;;4.55;;
76765;SDS011;65707;52.362;6.588;2023-07-29T12:00:50;8.60;;;5.18;;
76765;SDS011;65707;52.362;6.588;2023-07-29T12:03:19;8.82;;;4.28;;
76765;SDS011;65707;52.362;6.588;2023-07-29T12:05:46;6.80;;;3.92;;
76765;SDS011;65707;52.362;6.588;2023-07-29T12:08:13;10.02;;;3.80;;
76765;SDS011;65707;52.362;6.588;2023-07-29T12:10:40;9.07;;;4.25;;
76765;SDS011;65707;52.362;6.588;2023-07-29T12:13:07;7.00;;;3.60;;
76765;SDS011;65707;52.362;6.588;2023-07-29T12:15:35;8.20;;;3.38;;
76765;SDS011;65707;52.362;6.588;2023-07-29T12:18:05;8.80;;;3.38;;
76765;SDS011;65707;52.362;6.588;2023-07-29T12:20:33;8.52;;;3.03;;
76765;SDS011;65707;52.362;6.588;2023-07-29T12:23:01;9.32;;;2.88;;
76765;SDS011;65707;52.362;6.588;2023-07-29T12:25:28;8.23;;;2.95;;
76765;SDS011;65707;52.362;6.588;2023-07-29T12:27:56;6.18;;;3.20;;
76765;SDS011;65707;52.362;6.588;2023-07-29T12:30:23;6.80;;;2.67;;
76765;SDS011;65707;52.362;6.588;2023-07-29T12:32:51;6.00;;;2.65;;
76765;SDS011;65707;52.362;6.588;2023-07-29T12:35:18;8.07;;;2.67;;
76765;SDS011;65707;52.362;6.588;2023-07-29T12:37:46;6.28;;;2.40;;
76765;SDS011;65707;52.362;6.588;2023-07-29T12:40:22;6.05;;;2.22;;
76765;SDS011;65707;52.362;6.588;2023-07-29T12:42:49;5.25;;;2.10;;
76765;SDS011;65707;52.362;6.588;2023-07-29T12:45:17;6.05;;;2.28;;
76765;SDS011;65707;52.362;6.588;2023-07-29T12:47:44;5.65;;;2.40;;
76765;SDS011;65707;52.362;6.588;2023-07-29T12:50:11;5.47;;;2.50;;
76765;SDS011;65707;52.362;6.588;2023-07-29T12:52:38;7.03;;;2.72;;
76765;SDS011;65707;52.362;6.588;2023-07-29T12:55:07;5.72;;;2.90;;
76765;SDS011;65707;52.362;6.588;2023-07-29T12:57:38;5.35;;;2.08;;
76765;SDS011;65707;52.362;6.588;2023-07-29T13:00:06;6.63;;;2.75;;
76765;SDS011;65707;52.362;6.588;2023-07-29T13:02:35;6.35;;;2.90;;
76765;SDS011;65707;52.362;6.588;2023-07-29T13:05:02;6.38;;;2.53;;
76765;SDS011;65707;52.362;6.588;2023-07-29T13:07:29;5.82;;;2.92;;
76765;SDS011;65707;52.362;6.588;2023-07-29T13:09:56;7.22;;;2.97;;
76765;SDS011;65707;52.362;6.588;2023-07-29T13:12:24;6.03;;;3.28;;
76765;SDS011;65707;52.362;6.588;2023-07-29T13:14:51;6.55;;;3.03;;
76765;SDS011;65707;52.362;6.588;2023-07-29T13:17:17;9.38;;;2.80;;
76765;SDS011;65707;52.362;6.588;2023-07-29T13:19:44;7.78;;;2.65;;
76765;SDS011;65707;52.362;6.588;2023-07-29T13:22:11;7.25;;;2.28;;
76765;SDS011;65707;52.362;6.588;2023-07-29T13:24:37;4.65;;;1.50;;
76765;SDS011;65707;52.362;6.588;2023-07-29T13:27:04;4.47;;;1.75;;
76765;SDS011;65707;52.362;6.588;2023-07-29T13:29:33;4.93;;;1.40;;
76765;SDS011;65707;52.362;6.588;2023-07-29T13:32:00;5.50;;;1.70;;
76765;SDS011;65707;52.362;6.588;2023-07-29T13:34:26;4.78;;;1.30;;
76765;SDS011;65707;52.362;6.588;2023-07-29T13:36:53;6.72;;;1.95;;
76765;SDS011;65707;52.362;6.588;2023-07-29T13:39:20;4.55;;;1.50;;
76765;SDS011;65707;52.362;6.588;2023-07-29T13:41:47;4.70;;;1.42;;
76765;SDS011;65707;52.362;6.588;2023-07-29T13:44:14;4.35;;;1.67;;
76765;SDS011;65707;52.362;6.588;2023-07-29T13:46:42;5.07;;;1.58;;
76765;SDS011;65707;52.362;6.588;2023-07-29T13:49:09;4.30;;;1.42;;
76765;SDS011;65707;52.362;6.588;2023-07-29T13:51:36;5.28;;;1.38;;
76765;SDS011;65707;52.362;6.588;2023-07-29T13:54:03;4.90;;;1.40;;
76765;SDS011;65707;52.362;6.588;2023-07-29T13:56:30;4.82;;;1.33;;
76765;SDS011;65707;52.362;6.588;2023-07-29T13:58:56;4.43;;;1.00;;
76765;SDS011;65707;52.362;6.588;2023-07-29T14:01:23;4.60;;;0.98;;
76765;SDS011;65707;52.362;6.588;2023-07-29T14:03:51;4.00;;;0.90;;
76765;SDS011;65707;52.362;6.588;2023-07-29T14:06:18;3.85;;;1.00;;
76765;SDS011;65707;52.362;6.588;2023-07-29T14:08:44;3.92;;;0.95;;
76765;SDS011;65707;52.362;6.588;2023-07-29T14:11:11;3.70;;;1.00;;
76765;SDS011;65707;52.362;6.588;2023-07-29T14:13:38;4.85;;;1.10;;
76765;SDS011;65707;52.362;6.588;2023-07-29T14:16:05;4.50;;;1.27;;
76765;SDS011;65707;52.362;6.588;2023-07-29T14:18:31;5.95;;;1.20;;
76765;SDS011;65707;52.362;6.588;2023-07-29T14:20:59;4.32;;;1.27;;
76765;SDS011;65707;52.362;6.588;2023-07-29T14:23:26;4.95;;;1.30;;
76765;SDS011;65707;52.362;6.588;2023-07-29T14:25:53;4.40;;;1.40;;
76765;SDS011;65707;52.362;6.588;2023-07-29T14:28:19;4.38;;;1.33;;
76765;SDS011;65707;52.362;6.588;2023-07-29T14:30:46;4.95;;;1.42;;
76765;SDS011;65707;52.362;6.588;2023-07-29T14:33:13;4.65;;;1.38;;
76765;SDS011;65707;52.362;6.588;2023-07-29T14:35:40;5.97;;;1.60;;
76765;SDS011;65707;52.362;6.588;2023-07-29T14:38:08;4.50;;;1.80;;
76765;SDS011;65707;52.362;6.588;2023-07-29T14:40:35;4.75;;;1.50;;
76765;SDS011;65707;52.362;6.588;2023-07-29T14:43:02;5.45;;;1.27;;
76765;SDS011;65707;52.362;6.588;2023-07-29T14:45:28;4.97;;;1.38;;